Impacts TAF Board
For situational awareness. Not to be used for flight planning purposes.
IDs:

KGJT - Grand Junction Rgnl, CO, US

Issued at 1727 UTC 01 Feb 2023
Updated at 2149 UTC 01 Feb 2023
Potential Impact None Slight Moderate High
Time2053Z 01/22Z 01/23Z 02/00Z 02/01Z 02/02Z 02/03Z 02/04Z 02/05Z 02/06Z 02/07Z 02/08Z 02/09Z 02/10Z>>
Type OBS PRVL PRVL PRVL PRVL PRVL PRVL PRVL PRVL PRVL PRVL PRVL PRVL PRVL
VIS 10 >6 >6 >6 >6 >6 >6 >6 >6 >6 >6 >6 >6 >6
CIG -- -- -- -- -- -- -- -- -- -- -- -- -- --
Cover CLR SKC SKC SKC SKC SKC SKC SKC SKC SKC SKC SKC SKC SKC
FltCat VFR VFR VFR VFR VFR VFR VFR VFR VFR VFR VFR VFR VFR VFR
WX -- -- -- -- -- -- -- -- -- -- -- -- -- --
WDir VRB 140 140 140 140 80 80 80 80 80 80 80 80 80
WSpd 0 12 12 12 12 6 6 6 6 6 6 6 6 6
WGst -- -- -- -- -- -- -- -- -- -- -- -- -- --
WSHgt -- -- -- -- -- -- -- -- -- -- -- -- -- --
WSDir -- -- -- -- -- -- -- -- -- -- -- -- -- --
WSSpd -- -- -- -- -- -- -- -- -- -- -- -- -- --
R04/22
XWnd VRB -12 -12 -12 -12 -3 -3 -3 -3 -3 -3 -3 -3 -3
HWnd VRB 1 1 1 1 5 5 5 5 5 5 5 5 5
R11/29
XWnd VRB -3 -3 -3 -3 4 4 4 4 4 4 4 4 4
HWnd VRB 12 12 12 12 4 4 4 4 4 4 4 4 4

NOTE: LAMP data beyond the time of the TAF data is denoted as LAMP in Type and colored magenta.

Raw TAF
KGJT 011727Z 0118/0218 14012KT P6SM SKC
  FM020200 08006KT P6SM SKC
  FM021200 12008KT P6SM SKC


Raw METAR
KGJT 012053Z 00000KT 10SM CLR 00/M12 A3025 RMK AO2 SLP278 T00001122 56027
KGJT 011953Z 17004KT 10SM CLR M02/M12 A3028 RMK AO2 SLP289 T10171122
KGJT 011853Z 18008KT 10SM CLR M03/M12 A3031 RMK AO2 SLP301 T10331122

METAR Board
Radar Display
Forecast Discussion

For situational awareness. Not to be used for flight planning purposes.